Time;durP1;ratioP1;P1;durP2;ratioP2;P2;SDS_P1;SDS_P2;PMS_P1;PMS_P2;Temp;Humidity;BMP_temperature;BMP_pressure;BME280_temperature;BME280_humidity;BME280_pressure;Samples;Min_cycle;Max_cycle;Signal;HPM_P1;HPM_P2
2023/12/06 00:01:49;;;;;;;0.45;0.35;;;4.50;99.90;;;;;;5029684;28;20029;-71
2023/12/06 00:04:15;;;;;;;0.60;0.60;;;4.50;99.90;;;;;;5035140;28;20101;-71
2023/12/06 00:06:41;;;;;;;0.52;0.35;;;4.60;99.90;;;;;;5028811;28;20500;-71
2023/12/06 00:09:06;;;;;;;0.13;0.13;;;4.60;99.90;;;;;;5029963;28;20108;-71
2023/12/06 00:11:32;;;;;;;1.23;0.77;;;4.60;99.90;;;;;;5011007;28;20128;-74
2023/12/06 00:13:58;;;;;;;0.30;0.30;;;4.60;99.90;;;;;;5029155;28;20476;-72
2023/12/06 00:16:24;;;;;;;1.17;0.93;;;4.60;99.90;;;;;;5027676;28;20037;-72
2023/12/06 00:18:49;;;;;;;0.85;0.85;;;4.60;99.90;;;;;;5029659;28;20030;-71
2023/12/06 00:21:16;;;;;;;0.47;0.47;;;4.70;99.90;;;;;;5027440;28;20088;-71
2023/12/06 00:23:41;;;;;;;1.92;0.98;;;4.70;99.90;;;;;;5029381;28;20037;-71
2023/12/06 00:26:07;;;;;;;1.50;1.02;;;4.60;99.90;;;;;;5027519;28;20491;-71
2023/12/06 00:28:33;;;;;;;1.23;0.77;;;4.70;99.90;;;;;;5028076;28;20055;-72
2023/12/06 00:30:59;;;;;;;0.43;0.43;;;4.60;99.90;;;;;;5027866;28;20087;-71
2023/12/06 00:33:24;;;;;;;0.10;0.10;;;4.60;99.90;;;;;;5037087;28;20477;-72
2023/12/06 00:35:51;;;;;;;0.30;0.30;;;4.60;99.90;;;;;;4994438;28;20041;-71
2023/12/06 00:38:16;;;;;;;0.63;0.63;;;4.70;99.90;;;;;;5028033;28;20029;-71
2023/12/06 00:40:44;;;;;;;1.45;1.20;;;4.60;99.90;;;;;;5029645;28;20033;-71
2023/12/06 00:43:10;;;;;;;0.75;0.70;;;4.70;99.90;;;;;;5030316;28;20351;-72
2023/12/06 00:45:36;;;;;;;1.75;0.60;;;4.70;99.90;;;;;;5028190;28;20037;-72
2023/12/06 00:48:02;;;;;;;0.15;0.15;;;4.70;99.90;;;;;;5028568;28;20033;-71
2023/12/06 00:50:28;;;;;;;0.85;0.85;;;4.70;99.90;;;;;;5025277;28;20036;-71
2023/12/06 00:52:53;;;;;;;1.25;0.98;;;4.70;99.90;;;;;;5029646;28;20021;-71
2023/12/06 00:55:19;;;;;;;0.43;0.43;;;4.70;99.90;;;;;;5027413;28;20087;-71
2023/12/06 00:57:45;;;;;;;0.98;0.70;;;4.70;99.90;;;;;;5029317;28;20037;-71
2023/12/06 01:00:12;;;;;;;1.13;0.63;;;4.70;99.90;;;;;;5029835;28;20025;-71
2023/12/06 01:02:41;;;;;;;0.63;0.52;;;4.70;99.90;;;;;;5026001;28;20029;-71
2023/12/06 01:05:07;;;;;;;0.52;0.52;;;4.70;99.90;;;;;;5026358;28;20044;-71
2023/12/06 01:07:32;;;;;;;4.03;0.63;;;4.70;99.90;;;;;;5029229;28;20021;-71
2023/12/06 01:09:58;;;;;;;1.10;1.05;;;4.70;99.90;;;;;;5028063;28;20048;-71
2023/12/06 01:12:24;;;;;;;0.32;0.32;;;4.70;99.90;;;;;;5028624;28;20059;-71
2023/12/06 01:14:50;;;;;;;1.75;0.82;;;4.80;99.90;;;;;;5017833;28;20596;-71
2023/12/06 01:17:15;;;;;;;1.52;0.95;;;4.70;99.90;;;;;;5030517;28;20034;-71
2023/12/06 01:19:41;;;;;;;0.65;0.63;;;4.70;99.90;;;;;;5029024;28;20120;-71
2023/12/06 01:22:07;;;;;;;1.85;1.73;;;4.70;99.90;;;;;;5044964;28;20079;-72
2023/12/06 01:24:32;;;;;;;0.73;0.52;;;4.70;99.90;;;;;;5013083;28;20095;-72
2023/12/06 01:26:58;;;;;;;0.75;0.73;;;4.70;99.90;;;;;;5030398;28;20547;-72
2023/12/06 01:29:24;;;;;;;0.10;0.10;;;4.80;99.90;;;;;;5029648;28;20018;-72
2023/12/06 01:31:49;;;;;;;0.80;0.55;;;4.70;99.90;;;;;;5020840;28;20086;-72
2023/12/06 01:34:15;;;;;;;0.43;0.40;;;4.70;99.90;;;;;;5029092;28;20083;-72
2023/12/06 01:36:41;;;;;;;2.92;0.95;;;4.70;99.90;;;;;;5029171;28;20049;-72
2023/12/06 01:39:08;;;;;;;3.30;1.42;;;4.70;99.90;;;;;;5029370;28;20029;-72
2023/12/06 01:41:33;;;;;;;1.17;0.93;;;4.70;99.90;;;;;;5027842;28;20512;-72
2023/12/06 01:43:59;;;;;;;1.58;1.38;;;4.80;99.90;;;;;;5031922;28;20104;-76
2023/12/06 01:46:25;;;;;;;4.47;1.30;;;4.80;99.90;;;;;;5031474;28;20672;-71
2023/12/06 01:48:52;;;;;;;3.17;1.65;;;4.80;99.90;;;;;;5024586;28;20025;-71
2023/12/06 01:51:19;;;;;;;1.92;0.68;;;4.80;99.90;;;;;;5038009;28;20423;-69
2023/12/06 01:53:45;;;;;;;1.13;1.05;;;4.80;99.90;;;;;;5026679;28;20374;-70
2023/12/06 01:56:12;;;;;;;0.75;0.75;;;4.80;99.90;;;;;;5025654;28;20060;-70
2023/12/06 01:58:39;;;;;;;2.33;1.48;;;4.80;99.90;;;;;;5023927;28;20038;-69
2023/12/06 02:01:06;;;;;;;0.57;0.57;;;4.80;99.90;;;;;;5025211;28;20031;-71
2023/12/06 02:03:34;;;;;;;1.13;0.93;;;4.80;99.90;;;;;;5025725;28;20443;-71
2023/12/06 02:06:02;;;;;;;0.82;0.82;;;4.80;99.90;;;;;;5019774;28;20040;-71
2023/12/06 02:08:32;;;;;;;0.70;0.70;;;4.80;99.90;;;;;;5025088;28;20401;-70
2023/12/06 02:10:57;;;;;;;0.75;0.75;;;4.80;99.90;;;;;;5010885;28;20377;-71
2023/12/06 02:13:23;;;;;;;1.08;0.65;;;4.80;99.90;;;;;;5025897;28;20030;-70
2023/12/06 02:15:50;;;;;;;0.22;0.22;;;4.80;99.90;;;;;;5026069;28;20516;-71
2023/12/06 02:18:16;;;;;;;0.63;0.63;;;4.90;99.90;;;;;;5026018;28;20033;-71
2023/12/06 02:20:43;;;;;;;1.52;0.75;;;4.90;99.90;;;;;;5026139;28;20497;-71
2023/12/06 02:23:11;;;;;;;1.05;0.60;;;4.80;99.90;;;;;;5026540;28;20029;-70
2023/12/06 02:25:37;;;;;;;0.55;0.55;;;4.80;99.90;;;;;;5027637;28;20026;-72
2023/12/06 02:28:03;;;;;;;0.73;0.73;;;4.80;99.90;;;;;;5031615;28;20028;-71
2023/12/06 02:30:29;;;;;;;0.88;0.73;;;4.90;99.90;;;;;;5029963;28;20044;-72
2023/12/06 02:32:54;;;;;;;1.13;1.02;;;4.90;99.90;;;;;;5031661;28;20026;-72
2023/12/06 02:35:26;;;;;;;0.60;0.60;;;4.90;99.90;;;;;;5031932;28;20108;-72
2023/12/06 02:37:56;;;;;;;0.93;0.88;;;4.90;99.90;;;;;;5013065;28;20130;-71
2023/12/06 02:40:25;;;;;;;1.90;1.33;;;4.90;99.90;;;;;;5026218;28;20037;-71
2023/12/06 02:42:51;;;;;;;0.63;0.43;;;4.90;99.90;;;;;;5030410;28;20021;-71
2023/12/06 02:45:17;;;;;;;0.47;0.47;;;4.90;99.90;;;;;;5030081;28;20156;-72
2023/12/06 02:47:42;;;;;;;0.75;0.70;;;4.90;99.90;;;;;;5030314;28;20801;-71
2023/12/06 02:50:08;;;;;;;1.10;0.63;;;4.90;99.90;;;;;;5031048;28;20064;-72
2023/12/06 02:52:34;;;;;;;0.28;0.20;;;4.90;99.90;;;;;;5032067;28;20119;-72
2023/12/06 02:55:00;;;;;;;1.00;0.50;;;4.90;99.90;;;;;;5031914;28;20081;-72
2023/12/06 02:57:26;;;;;;;0.60;0.60;;;4.90;99.90;;;;;;5029562;28;20434;-72
2023/12/06 02:59:51;;;;;;;0.20;0.20;;;4.90;99.90;;;;;;5045103;28;20168;-72
2023/12/06 03:02:17;;;;;;;0.43;0.43;;;4.90;99.90;;;;;;5030080;28;20037;-71
2023/12/06 03:04:43;;;;;;;0.73;0.73;;;4.80;99.90;;;;;;5030915;28;20033;-71
2023/12/06 03:07:08;;;;;;;0.20;0.20;;;4.80;99.90;;;;;;5012772;28;20497;-71
2023/12/06 03:09:35;;;;;;;0.55;0.40;;;4.90;99.90;;;;;;5029526;28;20517;-72
2023/12/06 03:12:00;;;;;;;0.60;0.55;;;4.90;99.90;;;;;;5028064;28;20037;-71
2023/12/06 03:14:26;;;;;;;0.30;0.30;;;4.90;99.90;;;;;;5030304;28;20041;-72
2023/12/06 03:16:52;;;;;;;0.40;0.40;;;4.90;99.90;;;;;;5030731;28;20402;-72
2023/12/06 03:19:17;;;;;;;0.40;0.35;;;4.90;99.90;;;;;;5046247;28;20021;-72
2023/12/06 03:21:43;;;;;;;0.32;0.32;;;4.80;99.90;;;;;;5031081;28;20025;-72
2023/12/06 03:24:09;;;;;;;0.32;0.32;;;4.80;99.90;;;;;;5031456;28;20020;-72
2023/12/06 03:26:34;;;;;;;4.95;0.95;;;4.80;99.90;;;;;;5012283;28;20540;-71
2023/12/06 03:29:00;;;;;;;0.50;0.43;;;4.80;99.90;;;;;;5026199;28;20168;-71
2023/12/06 03:31:26;;;;;;;7.65;0.90;;;4.90;99.90;;;;;;5028905;28;20037;-72
2023/12/06 03:33:51;;;;;;;0.90;0.60;;;4.90;99.90;;;;;;5013569;28;20025;-71
2023/12/06 03:36:17;;;;;;;0.43;0.43;;;4.80;99.90;;;;;;5029975;28;20034;-71
2023/12/06 03:38:43;;;;;;;1.52;0.55;;;4.80;99.90;;;;;;5029324;28;20095;-71
2023/12/06 03:41:09;;;;;;;1.70;1.15;;;4.80;99.90;;;;;;5030490;28;20031;-70
2023/12/06 03:43:35;;;;;;;2.78;2.15;;;4.80;99.90;;;;;;5029803;28;20110;-71
2023/12/06 03:46:01;;;;;;;1.45;1.27;;;4.90;99.90;;;;;;5030276;28;20053;-70
2023/12/06 03:48:26;;;;;;;0.90;0.68;;;4.80;99.90;;;;;;5031095;28;20598;-70
2023/12/06 03:50:52;;;;;;;1.17;0.95;;;4.90;99.90;;;;;;5032578;28;20384;-70
2023/12/06 03:53:18;;;;;;;0.45;0.45;;;4.90;99.90;;;;;;5033311;28;20091;-71
2023/12/06 03:55:44;;;;;;;0.38;0.38;;;4.90;99.90;;;;;;5031480;28;20047;-71
2023/12/06 03:58:10;;;;;;;0.30;0.30;;;4.90;99.90;;;;;;5031937;28;20041;-71
2023/12/06 04:00:35;;;;;;;0.45;0.45;;;4.90;99.90;;;;;;5032454;28;20030;-72
2023/12/06 04:03:01;;;;;;;0.30;0.30;;;4.80;99.90;;;;;;5029839;28;20034;-72
2023/12/06 04:05:27;;;;;;;0.98;0.95;;;4.80;99.90;;;;;;5031444;28;20029;-72
2023/12/06 04:07:52;;;;;;;0.68;0.55;;;4.90;99.90;;;;;;5031803;28;20103;-71
2023/12/06 04:10:18;;;;;;;0.60;0.60;;;4.90;99.90;;;;;;5031802;28;20100;-72
2023/12/06 04:12:44;;;;;;;0.47;0.43;;;4.90;99.90;;;;;;5033056;28;20416;-71
2023/12/06 04:15:11;;;;;;;1.02;0.38;;;4.90;99.90;;;;;;5032677;28;20061;-71
2023/12/06 04:17:36;;;;;;;0.55;0.55;;;4.90;99.90;;;;;;5029612;28;20037;-72
2023/12/06 04:20:06;;;;;;;1.23;0.73;;;5.00;99.90;;;;;;5035741;28;20091;-72
2023/12/06 04:22:32;;;;;;;0.15;0.15;;;5.00;99.90;;;;;;5032487;28;20100;-71
2023/12/06 04:24:58;;;;;;;1.80;1.48;;;5.00;99.90;;;;;;5031253;28;20501;-71
2023/12/06 04:27:23;;;;;;;0.60;0.60;;;5.00;99.90;;;;;;5032924;28;20063;-71
2023/12/06 04:29:49;;;;;;;0.80;0.68;;;5.00;99.90;;;;;;5028726;28;20021;-72
2023/12/06 04:32:15;;;;;;;1.25;0.95;;;5.00;99.90;;;;;;5032580;28;20021;-71
2023/12/06 04:34:55;;;;;;;0.10;0.10;;;5.00;99.90;;;;;;5030753;28;20104;-71
2023/12/06 04:37:21;;;;;;;0.47;0.47;;;5.00;99.90;;;;;;5031500;28;20036;-71
2023/12/06 04:39:47;;;;;;;1.33;0.88;;;5.10;99.90;;;;;;5027918;28;20039;-72
2023/12/06 04:42:16;;;;;;;0.80;0.80;;;5.00;99.90;;;;;;5031715;28;20028;-71
2023/12/06 04:44:42;;;;;;;0.93;0.50;;;5.00;99.90;;;;;;5031929;28;20025;-71
2023/12/06 04:47:08;;;;;;;0.47;0.47;;;5.10;99.90;;;;;;5028420;28;20144;-71
2023/12/06 04:49:34;;;;;;;0.82;0.80;;;5.10;99.90;;;;;;5029693;28;20488;-71
2023/12/06 04:52:01;;;;;;;1.23;0.65;;;5.10;99.90;;;;;;5028490;28;20047;-71
2023/12/06 04:54:27;;;;;;;3.75;0.63;;;5.10;99.90;;;;;;5031664;28;20358;-72
2023/12/06 04:56:52;;;;;;;0.43;0.40;;;5.10;99.90;;;;;;5029560;28;20033;-71
2023/12/06 04:59:18;;;;;;;0.38;0.38;;;5.10;99.90;;;;;;5037867;28;20080;-71
2023/12/06 05:01:44;;;;;;;1.85;0.35;;;5.10;99.90;;;;;;5027347;28;20033;-71
2023/12/06 05:04:10;;;;;;;0.95;0.70;;;5.10;99.90;;;;;;5031225;28;20492;-71
2023/12/06 05:06:36;;;;;;;0.52;0.40;;;5.10;99.90;;;;;;5029981;28;20080;-72
2023/12/06 05:09:07;;;;;;;0.40;0.40;;;5.10;99.90;;;;;;5028570;28;20025;-71
2023/12/06 05:11:34;;;;;;;2.95;0.57;;;5.10;99.90;;;;;;5029770;28;20052;-71
2023/12/06 05:13:59;;;;;;;0.60;0.55;;;5.00;99.90;;;;;;5032240;28;20043;-71
2023/12/06 05:16:25;;;;;;;1.63;1.30;;;5.10;99.90;;;;;;5024887;28;20034;-72
2023/12/06 05:18:51;;;;;;;0.60;0.60;;;5.00;99.90;;;;;;5048070;28;20505;-71
2023/12/06 05:21:17;;;;;;;0.70;0.70;;;5.00;99.90;;;;;;5050652;28;20034;-73
2023/12/06 05:23:43;;;;;;;1.08;0.75;;;5.00;99.90;;;;;;5034878;28;20030;-72
2023/12/06 05:26:09;;;;;;;2.03;0.70;;;5.00;99.90;;;;;;5030695;28;20048;-72
2023/12/06 05:28:34;;;;;;;1.67;1.48;;;5.00;99.90;;;;;;5030073;28;20065;-71
2023/12/06 05:31:00;;;;;;;0.70;0.70;;;5.00;99.90;;;;;;5031244;28;20492;-71
2023/12/06 05:33:27;;;;;;;1.27;0.60;;;5.10;99.90;;;;;;5030937;28;20029;-71
2023/12/06 05:35:55;;;;;;;2.15;1.25;;;5.10;99.90;;;;;;5031099;28;20030;-70
2023/12/06 05:38:22;;;;;;;1.30;1.17;;;5.10;99.90;;;;;;5030308;28;20048;-71
2023/12/06 05:40:49;;;;;;;0.80;0.80;;;5.10;99.90;;;;;;5031659;28;20025;-71
2023/12/06 05:43:15;;;;;;;1.15;1.05;;;5.10;99.90;;;;;;5023004;28;20033;-71
2023/12/06 05:45:41;;;;;;;1.92;1.42;;;5.20;99.90;;;;;;5029119;28;20037;-71
2023/12/06 05:48:07;;;;;;;1.73;1.05;;;5.20;99.90;;;;;;5024544;28;20029;-71
2023/12/06 05:50:33;;;;;;;0.98;0.80;;;5.20;99.90;;;;;;5029689;28;20030;-73
2023/12/06 05:52:59;;;;;;;2.30;2.10;;;5.20;99.90;;;;;;5045270;28;20029;-71
2023/12/06 05:55:26;;;;;;;1.15;1.00;;;5.20;99.90;;;;;;5029782;28;20083;-70
2023/12/06 05:57:51;;;;;;;1.38;1.05;;;5.20;99.90;;;;;;5045885;28;20033;-70
2023/12/06 06:00:18;;;;;;;1.05;0.82;;;5.20;99.90;;;;;;5029389;28;20025;-70
2023/12/06 06:02:44;;;;;;;0.57;0.57;;;5.20;99.90;;;;;;5030739;28;20745;-71
2023/12/06 06:05:10;;;;;;;2.17;1.58;;;5.30;99.90;;;;;;5022122;28;20095;-71
2023/12/06 06:07:37;;;;;;;3.65;2.35;;;5.30;99.90;;;;;;5030777;28;20065;-71
2023/12/06 06:10:03;;;;;;;1.42;1.30;;;5.30;99.90;;;;;;5027778;28;20127;-71
2023/12/06 06:12:30;;;;;;;2.65;1.50;;;5.40;99.90;;;;;;5031264;28;20021;-71
2023/12/06 06:14:56;;;;;;;7.03;1.98;;;5.40;99.90;;;;;;5029102;28;20061;-71
2023/12/06 06:17:22;;;;;;;1.95;1.15;;;5.40;99.90;;;;;;5012711;28;20111;-72
2023/12/06 06:19:48;;;;;;;0.93;0.88;;;5.50;99.90;;;;;;5044708;28;20048;-71
2023/12/06 06:22:14;;;;;;;2.50;2.22;;;5.50;99.90;;;;;;5030909;28;20028;-71
2023/12/06 06:24:40;;;;;;;1.90;1.20;;;5.60;99.90;;;;;;5029330;28;20073;-70
2023/12/06 06:27:06;;;;;;;1.10;0.85;;;5.60;99.90;;;;;;5030051;28;20400;-71
2023/12/06 06:29:32;;;;;;;2.45;1.58;;;5.60;99.90;;;;;;5030129;28;20047;-72
2023/12/06 06:31:57;;;;;;;2.00;1.40;;;5.60;99.90;;;;;;5045285;28;20029;-70
2023/12/06 06:34:23;;;;;;;2.50;1.90;;;5.60;99.90;;;;;;5045859;28;20021;-70
2023/12/06 06:36:49;;;;;;;2.95;2.50;;;5.70;99.90;;;;;;5028595;28;20062;-70
2023/12/06 06:39:15;;;;;;;3.47;2.58;;;5.70;99.90;;;;;;5032140;28;20021;-70
2023/12/06 06:41:41;;;;;;;4.90;2.40;;;5.60;99.90;;;;;;5029806;28;20489;-72
2023/12/06 06:44:06;;;;;;;3.83;2.88;;;5.60;99.90;;;;;;5027731;28;20030;-68
2023/12/06 06:46:32;;;;;;;0.88;0.88;;;5.50;99.90;;;;;;5027730;28;20027;-68
2023/12/06 06:48:58;;;;;;;4.53;2.88;;;5.50;99.90;;;;;;5029828;28;20038;-68
2023/12/06 06:51:36;;;;;;;3.67;1.80;;;5.40;99.90;;;;;;5030354;28;20083;-68
2023/12/06 06:54:05;;;;;;;5.30;4.80;;;5.40;99.90;;;;;;5030848;28;20100;-69
2023/12/06 06:56:31;;;;;;;3.22;2.75;;;5.30;99.90;;;;;;5009207;28;20096;-68
2023/12/06 06:58:57;;;;;;;7.82;3.30;;;5.30;99.90;;;;;;5029075;28;20061;-68
2023/12/06 07:01:23;;;;;;;2.05;1.95;;;5.20;99.90;;;;;;5027920;28;20057;-68
2023/12/06 07:03:50;;;;;;;3.78;2.53;;;5.20;99.90;;;;;;5030457;28;20053;-68
2023/12/06 07:06:15;;;;;;;12.38;3.45;;;5.10;99.90;;;;;;5027079;28;20030;-68
2023/12/06 07:08:41;;;;;;;3.45;2.92;;;5.10;99.90;;;;;;5029795;28;20098;-68
2023/12/06 07:11:07;;;;;;;6.25;3.53;;;5.10;99.90;;;;;;5036518;28;20056;-68
2023/12/06 07:13:34;;;;;;;2.78;2.58;;;5.10;99.90;;;;;;5010655;28;20481;-69
2023/12/06 07:16:00;;;;;;;3.05;2.15;;;5.00;99.90;;;;;;5032016;28;20037;-69
2023/12/06 07:18:27;;;;;;;4.07;3.05;;;5.10;99.90;;;;;;5033008;28;20028;-73
2023/12/06 07:20:53;;;;;;;1.67;1.58;;;5.10;99.90;;;;;;5033354;28;20029;-69
2023/12/06 07:23:19;;;;;;;2.78;2.10;;;5.00;99.90;;;;;;5022319;28;20029;-69
2023/12/06 07:25:46;;;;;;;4.25;2.95;;;5.00;99.90;;;;;;5030941;28;20594;-69
2023/12/06 07:28:13;;;;;;;3.10;2.60;;;5.00;99.90;;;;;;5029580;28;20114;-68
2023/12/06 07:30:40;;;;;;;1.58;1.38;;;5.00;99.90;;;;;;5033281;28;20116;-68
2023/12/06 07:33:09;;;;;;;5.85;1.63;;;5.00;99.90;;;;;;5048175;28;20037;-68
2023/12/06 07:35:36;;;;;;;19.48;2.10;;;5.00;99.90;;;;;;5048737;28;20029;-68
2023/12/06 07:38:02;;;;;;;1.77;1.50;;;4.90;99.90;;;;;;5031896;28;20051;-69
2023/12/06 07:40:29;;;;;;;2.08;1.88;;;4.90;99.90;;;;;;5032052;28;20018;-68
2023/12/06 07:42:54;;;;;;;1.83;1.25;;;4.90;99.90;;;;;;5031790;28;20044;-68
2023/12/06 07:45:21;;;;;;;1.65;1.23;;;4.90;99.90;;;;;;5031967;28;20025;-70
2023/12/06 07:47:48;;;;;;;1.83;1.33;;;4.90;99.90;;;;;;5015339;28;20029;-68
2023/12/06 07:50:14;;;;;;;3.45;2.47;;;4.90;99.90;;;;;;5031278;28;20037;-70
2023/12/06 07:52:40;;;;;;;2.97;2.13;;;4.90;99.90;;;;;;5033209;28;20116;-69
2023/12/06 07:55:06;;;;;;;1.58;1.48;;;4.90;99.90;;;;;;5023055;28;20048;-70
2023/12/06 07:57:36;;;;;;;3.00;1.70;;;4.90;99.90;;;;;;5026455;28;20030;-69
2023/12/06 08:00:11;;;;;;;2.28;1.40;;;4.90;99.90;;;;;;5047109;28;20091;-69
2023/12/06 08:02:41;;;;;;;2.03;1.83;;;4.90;99.90;;;;;;5024915;28;20109;-69
2023/12/06 08:05:10;;;;;;;1.48;1.33;;;4.90;99.90;;;;;;5042259;28;20025;-69
2023/12/06 08:07:37;;;;;;;1.77;1.65;;;4.90;99.90;;;;;;5033022;28;20540;-69
2023/12/06 08:10:12;;;;;;;2.40;1.48;;;4.90;99.90;;;;;;5030789;28;20124;-71
2023/12/06 08:12:38;;;;;;;1.17;1.10;;;4.90;99.90;;;;;;5032439;28;20035;-71
2023/12/06 08:15:08;;;;;;;0.40;0.40;;;4.90;99.90;;;;;;5047912;28;20032;-71
2023/12/06 08:17:34;;;;;;;2.55;1.35;;;4.90;99.90;;;;;;5031840;28;20030;-70
2023/12/06 08:20:00;;;;;;;1.85;1.60;;;4.90;99.90;;;;;;5031221;28;20079;-71
2023/12/06 08:22:27;;;;;;;0.70;0.63;;;4.90;99.90;;;;;;5031811;28;20025;-72
2023/12/06 08:24:57;;;;;;;3.45;2.17;;;4.80;99.90;;;;;;5048414;28;20029;-71
2023/12/06 08:27:29;;;;;;;4.78;1.33;;;4.80;99.90;;;;;;5031200;28;20032;-71
2023/12/06 08:29:56;;;;;;;3.08;1.35;;;4.90;99.90;;;;;;5032207;28;20060;-73
2023/12/06 08:32:22;;;;;;;1.13;0.77;;;4.90;99.90;;;;;;5047633;28;20029;-73
2023/12/06 08:34:49;;;;;;;1.63;1.40;;;4.90;99.90;;;;;;5048205;28;20043;-72
2023/12/06 08:37:15;;;;;;;1.38;1.27;;;4.90;99.90;;;;;;5031041;28;20139;-72
2023/12/06 08:39:41;;;;;;;0.93;0.85;;;4.90;99.90;;;;;;5047251;28;20026;-72
2023/12/06 08:42:08;;;;;;;1.38;1.27;;;4.90;99.90;;;;;;5022671;28;20032;-71
2023/12/06 08:44:34;;;;;;;1.17;0.90;;;4.90;99.90;;;;;;5048039;28;20370;-69
2023/12/06 08:47:00;;;;;;;3.35;1.30;;;4.90;99.90;;;;;;5047143;28;20086;-69
2023/12/06 08:49:25;;;;;;;3.72;1.75;;;4.90;99.90;;;;;;5047398;28;20481;-70
2023/12/06 08:51:51;;;;;;;1.52;1.42;;;4.90;99.90;;;;;;5031650;28;20401;-71
2023/12/06 08:54:17;;;;;;;2.75;1.13;;;4.90;99.90;;;;;;5032439;28;20112;-70
2023/12/06 08:56:43;;;;;;;2.17;1.75;;;4.90;99.90;;;;;;5031551;28;20044;-70
2023/12/06 08:59:08;;;;;;;0.85;0.85;;;5.00;99.90;;;;;;5030785;28;20453;-71
2023/12/06 09:01:34;;;;;;;1.75;1.27;;;5.00;99.90;;;;;;5031269;28;20124;-70
2023/12/06 09:04:00;;;;;;;2.17;1.50;;;4.90;99.90;;;;;;5031850;28;20040;-71
2023/12/06 09:06:26;;;;;;;2.83;1.38;;;5.00;99.90;;;;;;5029276;28;20036;-73
2023/12/06 09:08:51;;;;;;;1.30;1.02;;;5.00;99.90;;;;;;5031390;28;20353;-71
2023/12/06 09:11:21;;;;;;;3.58;1.63;;;5.00;99.90;;;;;;5032021;28;20037;-72
2023/12/06 09:13:48;;;;;;;2.78;2.25;;;5.10;99.90;;;;;;5031748;28;20404;-72
2023/12/06 09:16:14;;;;;;;4.88;1.45;;;5.00;99.90;;;;;;5046911;28;20477;-71
2023/12/06 09:18:40;;;;;;;2.65;1.55;;;5.10;99.90;;;;;;5045620;28;20045;-72
2023/12/06 09:21:06;;;;;;;3.30;2.55;;;5.00;99.90;;;;;;5031624;28;20033;-73
2023/12/06 09:23:48;;;;;;;2.38;1.95;;;5.00;99.90;;;;;;5046710;28;20125;-74
2023/12/06 09:26:20;;;;;;;3.00;1.45;;;5.00;99.90;;;;;;5020202;28;20633;-71
2023/12/06 09:28:46;;;;;;;2.83;0.95;;;5.00;99.90;;;;;;5031436;28;20026;-70
2023/12/06 09:31:12;;;;;;;2.97;1.35;;;5.00;99.90;;;;;;5033390;28;20052;-72
2023/12/06 09:33:38;;;;;;;2.95;1.65;;;5.10;99.90;;;;;;5031349;28;20025;-68
2023/12/06 09:36:04;;;;;;;1.27;1.17;;;5.10;99.90;;;;;;5031778;28;20041;-69
2023/12/06 09:38:30;;;;;;;1.67;1.30;;;5.10;99.90;;;;;;5030170;28;20021;-73
2023/12/06 09:40:56;;;;;;;3.53;2.97;;;5.10;99.90;;;;;;5030812;28;20428;-73
2023/12/06 09:43:22;;;;;;;2.95;1.48;;;5.10;99.90;;;;;;5029234;28;20471;-70
2023/12/06 09:45:48;;;;;;;1.83;1.38;;;5.10;99.90;;;;;;5001750;28;20042;-70
2023/12/06 09:48:14;;;;;;;1.33;1.23;;;5.10;99.90;;;;;;5009147;28;20025;-70
2023/12/06 09:50:40;;;;;;;2.78;1.15;;;5.10;99.90;;;;;;5010240;28;20042;-70
2023/12/06 09:53:06;;;;;;;1.35;1.10;;;5.10;99.90;;;;;;5008394;28;20057;-70
2023/12/06 09:55:35;;;;;;;2.63;2.38;;;5.10;99.90;;;;;;5010233;28;20661;-70
2023/12/06 09:58:01;;;;;;;2.67;1.67;;;5.10;99.90;;;;;;5010285;28;20498;-71
2023/12/06 10:00:27;;;;;;;2.55;1.52;;;5.20;99.90;;;;;;5009842;28;20072;-71
2023/12/06 10:02:59;;;;;;;1.45;1.23;;;5.20;99.90;;;;;;5009464;28;20034;-72
2023/12/06 10:05:25;;;;;;;3.30;2.30;;;5.20;99.90;;;;;;5023329;28;20025;-71
2023/12/06 10:07:51;;;;;;;2.10;1.90;;;5.20;99.90;;;;;;5021928;28;20033;-71
2023/12/06 10:10:22;;;;;;;1.70;1.25;;;5.20;99.90;;;;;;5001355;28;20374;-71
2023/12/06 10:12:53;;;;;;;2.08;1.73;;;5.20;99.90;;;;;;5011488;28;20490;-72
2023/12/06 10:15:20;;;;;;;3.22;1.73;;;5.20;99.90;;;;;;4998696;28;20030;-71
2023/12/06 10:17:46;;;;;;;1.75;1.60;;;5.30;99.90;;;;;;5005013;28;20030;-72
2023/12/06 10:20:13;;;;;;;2.63;1.95;;;5.30;99.90;;;;;;5010816;28;20030;-71
2023/12/06 10:22:39;;;;;;;2.38;2.17;;;5.30;99.90;;;;;;5009297;28;20026;-71
2023/12/06 10:25:07;;;;;;;5.47;1.65;;;5.30;99.90;;;;;;5004512;28;20032;-72
2023/12/06 10:27:35;;;;;;;2.70;2.25;;;5.30;99.90;;;;;;5009715;28;20037;-71
2023/12/06 10:30:02;;;;;;;5.50;2.35;;;5.30;99.90;;;;;;5004226;28;20061;-72
2023/12/06 10:32:30;;;;;;;1.98;1.30;;;5.30;99.90;;;;;;5026307;28;20029;-71
2023/12/06 10:35:00;;;;;;;1.35;1.25;;;5.30;99.90;;;;;;4998288;28;20034;-73
2023/12/06 10:37:27;;;;;;;3.45;2.30;;;5.30;99.90;;;;;;5023015;28;20176;-71
2023/12/06 10:40:09;;;;;;;2.22;1.83;;;5.30;99.90;;;;;;5000456;28;20038;-71
2023/12/06 10:42:36;;;;;;;;;;;5.30;99.90;;;;;;5009658;28;20504;-70
2023/12/06 10:45:03;;;;;;;1.63;1.52;;;5.30;99.90;;;;;;5025139;28;19975;-72
2023/12/06 10:47:31;;;;;;;2.50;1.88;;;5.40;99.90;;;;;;5030088;28;20034;-72
2023/12/06 10:50:03;;;;;;;4.85;3.00;;;5.30;99.90;;;;;;5012816;28;20112;-72
2023/12/06 10:52:30;;;;;;;1.88;1.38;;;5.40;99.90;;;;;;5013690;28;20536;-72
2023/12/06 10:54:58;;;;;;;2.63;2.42;;;5.40;99.90;;;;;;5014239;28;20033;-72
2023/12/06 10:57:25;;;;;;;2.20;1.73;;;5.40;99.90;;;;;;5011593;28;20025;-72
2023/12/06 10:59:52;;;;;;;1.75;1.33;;;5.40;99.90;;;;;;5010148;28;20117;-72
2023/12/06 11:02:19;;;;;;;0.40;0.40;;;5.50;99.90;;;;;;5021402;28;20533;-72
2023/12/06 11:05:05;;;;;;;6.22;2.50;;;5.50;99.90;;;;;;5008986;28;20038;-71
2023/12/06 11:07:58;;;;;;;3.40;1.90;;;5.50;99.90;;;;;;5006980;28;20355;-72
2023/12/06 11:10:50;;;;;;;3.60;2.22;;;5.50;99.90;;;;;;5005664;28;20509;-72
2023/12/06 11:13:39;;;;;;;4.22;2.13;;;5.60;99.90;;;;;;5014259;28;20080;-72
2023/12/06 11:16:33;;;;;;;2.33;1.52;;;5.60;99.90;;;;;;5013964;28;20479;-71
2023/12/06 11:19:00;;;;;;;4.85;2.28;;;5.60;99.90;;;;;;5011969;28;20034;-72
2023/12/06 11:21:27;;;;;;;2.38;1.80;;;5.60;99.90;;;;;;5012415;28;20021;-70
2023/12/06 11:23:54;;;;;;;4.25;3.92;;;5.70;99.90;;;;;;5021105;28;20112;-71
2023/12/06 11:26:21;;;;;;;4.78;2.42;;;5.60;99.90;;;;;;5020522;28;20061;-70
2023/12/06 11:28:47;;;;;;;1.73;1.52;;;5.60;99.90;;;;;;5012049;28;20033;-70
2023/12/06 11:31:16;;;;;;;1.85;1.17;;;5.60;99.90;;;;;;5006925;28;20034;-70
2023/12/06 11:33:56;;;;;;;3.85;1.73;;;5.60;99.90;;;;;;5012469;28;20113;-74
2023/12/06 11:36:24;;;;;;;3.28;2.15;;;5.70;99.90;;;;;;5012112;28;20121;-70
2023/12/06 11:38:50;;;;;;;2.55;2.03;;;5.60;99.90;;;;;;5019432;28;20052;-70
2023/12/06 11:41:16;;;;;;;6.10;2.22;;;5.70;99.90;;;;;;5020088;28;20065;-71
2023/12/06 11:43:52;;;;;;;6.97;2.75;;;5.70;99.90;;;;;;5013902;28;20385;-71
2023/12/06 11:46:21;;;;;;;2.03;1.33;;;5.70;99.90;;;;;;5012970;28;20022;-71
2023/12/06 11:48:52;;;;;;;3.20;2.05;;;5.60;99.90;;;;;;5011523;28;20103;-71
2023/12/06 11:51:24;;;;;;;3.47;1.50;;;5.70;99.90;;;;;;5014169;28;20096;-71
2023/12/06 11:53:51;;;;;;;3.30;1.30;;;5.60;99.90;;;;;;5013964;28;20457;-71
2023/12/06 11:56:22;;;;;;;6.82;1.08;;;5.70;99.90;;;;;;5018037;28;20381;-71
2023/12/06 11:58:49;;;;;;;3.50;1.90;;;5.60;99.90;;;;;;5011620;28;20081;-71
2023/12/06 12:01:17;;;;;;;1.25;1.15;;;5.60;99.90;;;;;;5027577;28;20493;-71
2023/12/06 12:03:45;;;;;;;2.08;1.40;;;5.60;99.90;;;;;;5012118;28;20026;-70
2023/12/06 12:06:15;;;;;;;2.45;1.80;;;5.50;99.90;;;;;;5013551;28;20040;-68
2023/12/06 12:08:42;;;;;;;1.65;1.42;;;5.60;99.90;;;;;;4994992;28;20177;-68
2023/12/06 12:11:09;;;;;;;1.45;1.35;;;5.50;99.90;;;;;;5007264;28;20502;-68
2023/12/06 12:13:42;;;;;;;1.55;1.45;;;5.60;99.90;;;;;;5017518;28;20044;-68
2023/12/06 12:16:10;;;;;;;8.25;1.45;;;5.60;99.90;;;;;;5011237;28;20030;-68
2023/12/06 12:18:36;;;;;;;1.13;1.05;;;5.60;99.90;;;;;;5010857;28;20058;-68
2023/12/06 12:21:16;;;;;;;2.75;2.10;;;5.60;99.90;;;;;;5012563;28;20487;-68
2023/12/06 12:23:43;;;;;;;2.75;1.67;;;5.70;99.90;;;;;;5012948;28;20034;-68
2023/12/06 12:26:14;;;;;;;5.00;1.98;;;5.70;99.90;;;;;;5011039;28;20084;-68
2023/12/06 12:28:39;;;;;;;2.90;2.13;;;5.70;99.90;;;;;;5012020;28;20036;-68
2023/12/06 12:31:07;;;;;;;4.32;2.30;;;5.70;99.90;;;;;;5008859;28;20120;-69
2023/12/06 12:33:34;;;;;;;1.77;1.48;;;5.80;99.90;;;;;;5012772;28;20129;-69
2023/12/06 12:36:01;;;;;;;6.13;2.15;;;5.80;99.90;;;;;;5009118;28;20033;-69
2023/12/06 12:38:27;;;;;;;2.38;2.05;;;5.80;99.90;;;;;;5006107;28;20030;-69
2023/12/06 12:40:54;;;;;;;4.43;1.55;;;5.80;99.90;;;;;;5005235;28;20025;-71
2023/12/06 12:43:20;;;;;;;1.55;1.38;;;5.80;99.90;;;;;;5018560;28;20026;-69
2023/12/06 12:45:46;;;;;;;2.78;1.52;;;5.80;99.90;;;;;;5009890;28;20422;-69
2023/12/06 12:48:15;;;;;;;3.85;2.00;;;5.80;99.90;;;;;;4987459;28;20034;-69
2023/12/06 12:50:41;;;;;;;1.67;1.13;;;5.80;99.90;;;;;;5010549;28;20034;-69
2023/12/06 12:53:07;;;;;;;4.63;1.95;;;5.80;99.90;;;;;;5011203;28;20049;-69
2023/12/06 12:55:33;;;;;;;2.03;0.82;;;5.70;99.90;;;;;;5010764;28;20037;-70
2023/12/06 12:58:02;;;;;;;0.88;0.82;;;5.80;99.90;;;;;;5007294;28;20041;-69